Time;durP1;ratioP1;P1;durP2;ratioP2;P2;SDS_P1;SDS_P2;PMS_P1;PMS_P2;Temp;Humidity;BMP_temperature;BMP_pressure;BME280_temperature;BME280_humidity;BME280_pressure;Samples;Min_cycle;Max_cycle;Signal;HPM_P1;HPM_P2
2024/02/04 00:00:55;;;;;;;1.93;0.60;;;;;;;8.31;100.00;101212.88;5034205;28;20890;-70
2024/02/04 00:03:23;;;;;;;2.00;0.67;;;;;;;8.28;100.00;101214.25;5034805;28;21024;-70
2024/02/04 00:05:50;;;;;;;1.57;0.37;;;;;;;8.31;100.00;101210.16;5034329;28;20931;-70
2024/02/04 00:08:17;;;;;;;2.20;0.90;;;;;;;8.34;100.00;101223.94;5034651;28;20483;-70
2024/02/04 00:10:43;;;;;;;5.90;0.57;;;;;;;8.35;100.00;101217.47;5034245;28;20449;-70
2024/02/04 00:13:10;;;;;;;2.50;0.77;;;;;;;8.41;100.00;101225.59;5034410;28;20547;-70
2024/02/04 00:15:37;;;;;;;1.70;0.50;;;;;;;8.38;100.00;101207.25;5034122;28;20537;-70
2024/02/04 00:18:05;;;;;;;1.80;0.60;;;;;;;8.29;100.00;101221.25;5034633;28;20530;-70
2024/02/04 00:20:33;;;;;;;2.20;0.83;;;;;;;8.31;100.00;101219.06;5034223;28;20450;-71
2024/02/04 00:23:00;;;;;;;1.60;0.37;;;;;;;8.35;100.00;101225.56;5034451;28;20462;-70
2024/02/04 00:25:28;;;;;;;2.17;0.90;;;;;;;8.37;100.00;101221.81;5034625;28;20475;-70
2024/02/04 00:27:55;;;;;;;2.80;1.33;;;;;;;8.38;100.00;101231.53;5034090;28;21064;-70
2024/02/04 00:30:22;;;;;;;3.77;0.53;;;;;;;8.28;100.00;101227.72;5034411;28;20446;-70
2024/02/04 00:32:48;;;;;;;3.10;0.63;;;;;;;8.20;100.00;101222.88;5034096;28;20546;-70
2024/02/04 00:35:16;;;;;;;1.70;0.47;;;;;;;8.14;100.00;101218.53;5034018;28;21046;-70
2024/02/04 00:37:43;;;;;;;1.93;0.63;;;;;;;8.08;100.00;101216.91;5033979;28;20510;-70
2024/02/04 00:40:11;;;;;;;3.00;0.50;;;;;;;7.98;100.00;101204.22;5034603;28;20471;-70
2024/02/04 00:42:38;;;;;;;1.83;0.53;;;;;;;7.81;100.00;101199.06;5033774;28;20491;-70
2024/02/04 00:45:05;;;;;;;1.87;0.70;;;;;;;7.78;100.00;101193.41;5033431;28;20434;-70
2024/02/04 00:47:31;;;;;;;3.13;0.50;;;;;;;7.77;100.00;101210.66;5033424;28;21022;-70
2024/02/04 00:49:58;;;;;;;1.60;0.40;;;;;;;7.78;100.00;101213.09;5033407;28;20487;-71
2024/02/04 00:52:26;;;;;;;1.80;0.60;;;;;;;7.76;98.66;101199.06;5033363;28;20463;-70
2024/02/04 00:54:52;;;;;;;1.60;0.47;;;;;;;7.73;98.67;101205.00;5033720;28;20451;-70
2024/02/04 00:57:19;;;;;;;1.80;0.50;;;;;;;7.64;99.61;101195.81;5033788;28;20449;-70
2024/02/04 00:59:46;;;;;;;2.87;0.70;;;;;;;7.53;99.14;101197.69;5033647;28;20530;-71
2024/02/04 01:02:13;;;;;;;1.50;0.30;;;;;;;7.53;99.44;101204.97;5033428;28;20836;-71
2024/02/04 01:04:39;;;;;;;2.30;0.50;;;;;;;7.46;99.81;101197.09;5034175;28;20451;-70
2024/02/04 01:07:06;;;;;;;11.97;1.17;;;;;;;7.42;100.00;101195.19;5033870;28;20457;-70
2024/02/04 01:09:34;;;;;;;1.93;0.70;;;;;;;7.36;100.00;101201.66;5033157;28;20541;-70
2024/02/04 01:12:01;;;;;;;2.17;0.60;;;;;;;7.39;100.00;101190.34;5033162;28;20538;-70
2024/02/04 01:14:27;;;;;;;1.60;0.40;;;;;;;7.34;100.00;101186.53;5033468;28;20518;-70
2024/02/04 01:16:54;;;;;;;1.80;0.50;;;;;;;7.28;100.00;101184.91;5033161;28;20526;-70
2024/02/04 01:19:20;;;;;;;1.70;0.40;;;;;;;7.21;100.00;101197.00;5033751;28;20439;-70
2024/02/04 01:21:47;;;;;;;2.10;0.67;;;;;;;7.22;100.00;101207.53;5033701;28;20538;-70
2024/02/04 01:24:14;;;;;;;2.37;0.70;;;;;;;7.21;100.00;101205.88;5033094;28;20958;-70
2024/02/04 01:26:42;;;;;;;1.80;0.50;;;;;;;7.20;100.00;101204.28;5033401;28;21026;-70
2024/02/04 01:29:09;;;;;;;1.57;0.40;;;;;;;7.22;100.00;101202.16;5033271;28;20483;-70
2024/02/04 01:31:35;;;;;;;1.77;0.47;;;;;;;7.22;100.00;101217.50;5033439;28;20794;-70
2024/02/04 01:34:02;;;;;;;1.60;0.40;;;;;;;7.18;100.00;101209.13;5033273;28;20505;-70
2024/02/04 01:36:29;;;;;;;2.27;0.87;;;;;;;7.14;100.00;101202.66;5033450;28;20526;-70
2024/02/04 01:38:56;;;;;;;4.13;0.70;;;;;;;7.08;100.00;101200.97;5033602;28;20447;-70
2024/02/04 01:41:24;;;;;;;4.63;0.50;;;;;;;7.05;100.00;101207.72;5032865;28;20447;-70
2024/02/04 01:43:52;;;;;;;1.60;0.40;;;;;;;7.02;100.00;101208.25;5033234;28;20526;-70
2024/02/04 01:46:19;;;;;;;1.97;0.60;;;;;;;7.01;100.00;101208.50;5033284;28;20544;-70
2024/02/04 01:48:46;;;;;;;1.53;0.40;;;;;;;7.00;100.00;101210.41;5032635;28;20963;-70
2024/02/04 01:51:15;;;;;;;2.10;0.60;;;;;;;7.02;100.00;101208.25;5033468;28;20530;-70
2024/02/04 01:53:45;;;;;;;1.57;0.40;;;;;;;7.02;100.00;101199.34;5033089;28;20495;-70
2024/02/04 01:56:13;;;;;;;1.70;0.50;;;;;;;6.99;100.00;101191.78;5034061;28;20443;-70
2024/02/04 01:58:40;;;;;;;2.67;0.60;;;;;;;6.97;100.00;101197.44;5036841;28;20478;-70
2024/02/04 02:01:09;;;;;;;1.60;0.40;;;;;;;6.92;100.00;101199.31;5037160;28;20522;-70
2024/02/04 02:03:36;;;;;;;3.37;0.87;;;;;;;6.98;100.00;101201.75;5036420;28;21029;-70
2024/02/04 02:06:04;;;;;;;4.07;0.77;;;;;;;6.99;100.00;101202.56;5036465;28;20939;-70
2024/02/04 02:08:31;;;;;;;1.60;0.40;;;;;;;6.99;100.00;101183.72;5036786;28;20482;-70
2024/02/04 02:11:05;;;;;;;1.60;0.40;;;;;;;6.99;100.00;101195.28;5036381;28;21025;-70
2024/02/04 02:13:35;;;;;;;1.73;0.57;;;;;;;6.98;100.00;101179.41;5036618;28;20541;-70
2024/02/04 02:16:10;;;;;;;1.50;0.30;;;;;;;7.05;100.00;101166.50;5036284;28;20522;-70
2024/02/04 02:18:40;;;;;;;1.60;0.40;;;;;;;6.95;100.00;101145.75;5036465;28;20878;-70
2024/02/04 02:21:18;;;;;;;3.20;0.60;;;;;;;6.95;100.00;101148.44;5037271;28;20419;-70
2024/02/04 02:23:54;;;;;;;1.60;0.40;;;;;;;6.90;100.00;101161.03;5037209;28;20514;-70
2024/02/04 02:26:22;;;;;;;1.70;0.70;;;;;;;6.94;100.00;101167.53;5036499;28;20824;-70
2024/02/04 02:28:49;;;;;;;1.80;0.60;;;;;;;6.96;100.00;101170.78;5036650;28;20585;-70
2024/02/04 02:31:16;;;;;;;1.60;0.40;;;;;;;7.00;100.00;101172.69;5036310;28;20445;-69
2024/02/04 02:33:43;;;;;;;1.53;0.30;;;;;;;6.98;100.00;101169.44;5036238;28;20471;-69
2024/02/04 02:36:14;;;;;;;1.80;0.50;;;;;;;6.98;100.00;101172.13;5036528;28;20474;-70
2024/02/04 02:38:47;;;;;;;6.13;0.50;;;;;;;6.98;100.00;101180.19;5035865;28;20412;-70
2024/02/04 02:41:17;;;;;;;2.70;0.63;;;;;;;6.95;100.00;101174.53;5036155;28;20419;-70
2024/02/04 02:43:47;;;;;;;1.60;0.40;;;;;;;6.97;100.00;101172.41;5036324;28;20435;-70
2024/02/04 02:46:14;;;;;;;1.77;0.53;;;;;;;6.92;100.00;101180.47;5036064;28;20859;-70
2024/02/04 02:48:41;;;;;;;2.03;0.50;;;;;;;6.98;100.00;101187.47;5035716;28;20599;-70
2024/02/04 02:51:08;;;;;;;2.67;1.13;;;;;;;7.00;100.00;101182.66;5035995;28;20481;-70
2024/02/04 02:53:34;;;;;;;2.23;0.70;;;;;;;7.01;100.00;101179.69;5036497;28;20459;-70
2024/02/04 02:56:01;;;;;;;1.70;0.60;;;;;;;7.04;100.00;101178.38;5035604;28;20994;-70
2024/02/04 02:58:27;;;;;;;1.60;0.40;;;;;;;7.08;100.00;101176.75;5035884;28;20505;-70
2024/02/04 03:00:55;;;;;;;1.70;0.50;;;;;;;7.09;100.00;101170.31;5035655;28;20535;-70
2024/02/04 03:03:22;;;;;;;1.80;0.60;;;;;;;7.14;100.00;101167.63;5035665;28;20549;-71
2024/02/04 03:05:49;;;;;;;1.60;0.40;;;;;;;7.17;100.00;101171.66;5035364;28;20471;-71
2024/02/04 03:08:15;;;;;;;2.10;0.70;;;;;;;7.22;100.00;101166.31;5035475;28;20497;-71
2024/02/04 03:10:42;;;;;;;3.47;0.87;;;;;;;7.21;100.00;101165.47;5035599;28;20443;-71
2024/02/04 03:13:09;;;;;;;1.60;0.50;;;;;;;7.22;100.00;101160.94;5035150;28;20521;-71
2024/02/04 03:15:35;;;;;;;2.10;0.70;;;;;;;7.22;100.00;101164.44;5035484;28;20928;-70
2024/02/04 03:18:03;;;;;;;3.40;0.87;;;;;;;7.30;100.00;101168.47;5035428;28;20457;-70
2024/02/04 03:20:30;;;;;;;1.80;0.63;;;;;;;7.29;100.00;101170.38;5035711;28;20453;-70
2024/02/04 03:22:56;;;;;;;2.27;0.63;;;;;;;7.36;100.00;101166.63;5034936;28;20661;-70
2024/02/04 03:25:26;;;;;;;2.10;0.70;;;;;;;7.35;100.00;101173.91;5035380;28;20467;-70
2024/02/04 03:27:53;;;;;;;1.90;0.50;;;;;;;7.40;100.00;101163.13;5035549;28;20483;-70
2024/02/04 03:30:19;;;;;;;2.10;0.90;;;;;;;7.35;100.00;101155.03;5034788;28;20479;-70
2024/02/04 03:32:46;;;;;;;1.80;0.60;;;;;;;7.42;100.00;101155.59;5034981;28;20459;-70
2024/02/04 03:35:14;;;;;;;1.60;0.43;;;;;;;7.42;100.00;101147.50;5035394;28;20525;-70
2024/02/04 03:37:41;;;;;;;2.20;0.73;;;;;;;7.50;100.00;101155.06;5034735;28;20893;-70
2024/02/04 03:40:08;;;;;;;1.97;0.70;;;;;;;7.55;100.00;101149.69;5035040;28;20439;-70
2024/02/04 03:42:35;;;;;;;2.27;0.60;;;;;;;7.56;100.00;101139.72;5034895;28;20461;-70
2024/02/04 03:45:03;;;;;;;6.97;0.90;;;;;;;7.56;100.00;101137.00;5034576;28;20471;-70
2024/02/04 03:47:29;;;;;;;4.43;1.03;;;;;;;7.57;100.00;101128.69;5034838;28;20443;-70
2024/02/04 03:49:56;;;;;;;2.00;0.50;;;;;;;7.59;100.00;101133.78;5034403;28;20573;-70
2024/02/04 03:52:24;;;;;;;2.00;0.70;;;;;;;7.53;100.00;101127.59;5034471;28;20467;-70
2024/02/04 03:54:50;;;;;;;2.13;0.63;;;;;;;7.51;100.00;101132.41;5035123;28;20478;-70
2024/02/04 03:57:17;;;;;;;2.00;0.70;;;;;;;7.49;100.00;101131.09;5035025;28;20522;-69
2024/02/04 03:59:45;;;;;;;2.13;0.67;;;;;;;7.42;100.00;101134.03;5034654;28;20540;-69
2024/02/04 04:02:12;;;;;;;2.03;0.67;;;;;;;7.40;100.00;101128.09;5034300;28;21085;-69
2024/02/04 04:04:41;;;;;;;1.60;0.50;;;;;;;7.33;100.00;101125.66;5034769;28;20467;-69
2024/02/04 04:07:07;;;;;;;6.40;0.90;;;;;;;7.34;100.00;101124.56;5034513;28;20451;-70
2024/02/04 04:09:35;;;;;;;1.90;0.63;;;;;;;7.30;100.00;101120.81;5034226;28;20489;-70
2024/02/04 04:12:02;;;;;;;1.90;0.60;;;;;;;7.30;100.00;101123.50;5034015;28;20813;-70
2024/02/04 04:14:29;;;;;;;1.90;0.70;;;;;;;7.26;100.00;101125.09;5034388;28;20439;-70
2024/02/04 04:16:55;;;;;;;2.63;1.30;;;;;;;7.22;100.00;101109.75;5034307;28;20957;-70
2024/02/04 04:19:22;;;;;;;1.67;0.50;;;;;;;7.23;100.00;101112.16;5033459;28;20431;-69
2024/02/04 04:21:48;;;;;;;2.90;0.63;;;;;;;7.20;100.00;101109.97;5034124;28;20874;-69
2024/02/04 04:24:15;;;;;;;2.00;1.07;;;;;;;7.13;100.00;101112.13;5034214;28;20534;-69
2024/02/04 04:26:43;;;;;;;1.60;0.40;;;;;;;7.10;100.00;101112.66;5034120;28;20442;-69
2024/02/04 04:29:10;;;;;;;2.23;0.40;;;;;;;7.11;100.00;101106.19;5034370;28;20566;-69
2024/02/04 04:31:37;;;;;;;2.20;0.90;;;;;;;7.04;100.00;101101.06;5034027;28;20443;-70
2024/02/04 04:34:03;;;;;;;1.60;0.40;;;;;;;7.03;100.00;101104.81;5033714;28;20519;-70
2024/02/04 04:36:30;;;;;;;1.67;0.53;;;;;;;6.95;100.00;101094.56;5033623;28;20818;-69
2024/02/04 04:38:56;;;;;;;1.60;0.40;;;;;;;6.94;100.00;101106.41;5034414;28;20518;-70
2024/02/04 04:41:23;;;;;;;1.60;0.40;;;;;;;7.00;100.00;101096.47;5033525;28;20435;-69
2024/02/04 04:43:51;;;;;;;1.77;0.47;;;;;;;6.97;100.00;101089.72;5034219;28;20465;-69
2024/02/04 04:46:17;;;;;;;2.50;0.80;;;;;;;6.99;100.00;101103.72;5033833;28;20533;-69
2024/02/04 04:48:43;;;;;;;5.10;0.90;;;;;;;7.01;100.00;101088.13;5033473;28;20541;-69
2024/02/04 04:51:10;;;;;;;1.70;0.50;;;;;;;7.01;100.00;101101.59;5034257;28;20207;-69
2024/02/04 04:53:37;;;;;;;2.47;0.70;;;;;;;6.95;100.00;101086.50;5033335;28;20463;-69
2024/02/04 04:56:04;;;;;;;2.63;0.57;;;;;;;6.92;100.00;101080.81;5033687;28;20439;-69
2024/02/04 04:58:31;;;;;;;1.50;0.40;;;;;;;6.88;100.00;101072.47;5033647;28;20501;-69
2024/02/04 05:00:59;;;;;;;2.33;1.33;;;;;;;6.82;100.00;101068.94;5033631;28;20463;-69
2024/02/04 05:03:25;;;;;;;2.27;0.73;;;;;;;6.82;100.00;101068.13;5033695;28;20542;-69
2024/02/04 05:05:52;;;;;;;2.57;1.07;;;;;;;6.79;100.00;101074.03;5033570;28;20447;-69
2024/02/04 05:08:18;;;;;;;2.07;0.60;;;;;;;6.80;100.00;101064.88;5033520;28;20439;-69
2024/02/04 05:10:45;;;;;;;2.00;0.80;;;;;;;6.77;100.00;101068.09;5033461;28;20478;-69
2024/02/04 05:13:12;;;;;;;1.70;0.50;;;;;;;6.72;100.00;101062.69;5033843;28;20455;-69
2024/02/04 05:15:38;;;;;;;1.97;0.50;;;;;;;6.71;100.00;101067.28;5033832;28;20534;-69
2024/02/04 05:18:06;;;;;;;2.80;1.03;;;;;;;6.74;100.00;101060.56;5033473;28;20441;-69
2024/02/04 05:20:34;;;;;;;1.60;0.40;;;;;;;6.75;100.00;101068.38;5033654;28;20438;-69
2024/02/04 05:23:01;;;;;;;1.90;0.50;;;;;;;6.73;100.00;101049.00;5033002;28;20994;-69
2024/02/04 05:25:27;;;;;;;1.80;0.60;;;;;;;6.74;100.00;101055.19;5033725;28;20450;-70
2024/02/04 05:27:54;;;;;;;1.60;0.47;;;;;;;6.71;100.00;101045.72;5033716;28;20471;-69
2024/02/04 05:30:21;;;;;;;1.70;0.40;;;;;;;6.69;100.00;101042.50;5034319;28;20566;-69
2024/02/04 05:32:47;;;;;;;1.90;0.80;;;;;;;6.72;100.00;101047.34;5037157;28;20462;-69
2024/02/04 05:35:15;;;;;;;2.53;0.50;;;;;;;6.79;100.00;101030.97;5037564;28;20469;-69
2024/02/04 05:37:42;;;;;;;1.60;0.40;;;;;;;6.79;100.00;101042.53;5037405;28;20438;-69
2024/02/04 05:40:08;;;;;;;1.63;0.50;;;;;;;6.80;100.00;101028.00;5038243;28;20441;-69
2024/02/04 05:42:36;;;;;;;2.10;0.60;;;;;;;6.71;100.00;101034.97;5037300;28;20463;-69
2024/02/04 05:45:03;;;;;;;3.50;0.60;;;;;;;6.78;100.00;101038.22;5037218;28;20447;-69
2024/02/04 05:47:30;;;;;;;1.50;0.40;;;;;;;6.79;100.00;101045.22;5037098;28;20451;-70
2024/02/04 05:49:56;;;;;;;1.70;0.60;;;;;;;6.81;100.00;101040.38;5065754;22;20482;-66
2024/02/04 05:52:24;;;;;;;1.77;0.50;;;;;;;6.87;100.00;101048.50;5056875;28;20544;-66
2024/02/04 05:54:51;;;;;;;1.70;0.57;;;;;;;6.86;100.00;101053.03;5056561;28;20433;-66
2024/02/04 05:57:17;;;;;;;2.43;0.73;;;;;;;6.98;100.00;101048.25;5056987;28;20473;-66
2024/02/04 05:59:47;;;;;;;5.83;1.37;;;;;;;6.92;100.00;101052.00;5056773;28;20513;-66
2024/02/04 06:02:13;;;;;;;2.10;0.60;;;;;;;7.00;100.00;101038.03;5056768;28;20465;-66
2024/02/04 06:04:40;;;;;;;2.43;0.90;;;;;;;6.98;100.00;101052.81;5056750;28;20434;-66
2024/02/04 06:07:06;;;;;;;1.90;0.67;;;;;;;6.99;100.00;101054.44;5056752;28;20521;-66
2024/02/04 06:09:34;;;;;;;3.17;1.00;;;;;;;6.95;100.00;101039.88;5056478;28;20486;-66
2024/02/04 06:12:01;;;;;;;2.33;0.83;;;;;;;7.01;100.00;101055.00;5056199;28;20965;-66
2024/02/04 06:14:27;;;;;;;2.57;0.70;;;;;;;7.04;100.00;101049.09;5057020;28;20525;-66
2024/02/04 06:16:54;;;;;;;2.33;0.90;;;;;;;7.03;100.00;101050.94;5056591;28;20448;-67
2024/02/04 06:19:21;;;;;;;1.80;0.60;;;;;;;7.10;100.00;101050.69;5056132;28;20958;-66
2024/02/04 06:21:47;;;;;;;1.80;0.63;;;;;;;7.08;100.00;101047.44;5056336;28;20583;-66
2024/02/04 06:24:14;;;;;;;2.20;0.70;;;;;;;7.04;100.00;101043.69;5056402;28;20442;-66
2024/02/04 06:26:42;;;;;;;2.20;0.90;;;;;;;6.95;100.00;101026.41;5056293;28;20512;-66
2024/02/04 06:29:08;;;;;;;2.53;0.53;;;;;;;7.01;100.00;101042.34;5056243;28;20445;-66
2024/02/04 06:31:35;;;;;;;1.60;0.40;;;;;;;6.94;100.00;101040.97;5056434;28;20480;-68
2024/02/04 06:34:02;;;;;;;1.70;0.40;;;;;;;6.89;100.00;101038.25;5055794;28;20925;-69
2024/02/04 06:36:28;;;;;;;1.50;0.47;;;;;;;6.80;100.00;101054.91;5056087;28;20439;-69
2024/02/04 06:38:55;;;;;;;3.80;0.80;;;;;;;6.91;100.00;101049.59;5056079;28;20449;-69
2024/02/04 06:41:22;;;;;;;3.60;1.27;;;;;;;6.89;100.00;101049.03;5055738;28;20538;-69
2024/02/04 06:43:50;;;;;;;1.77;0.63;;;;;;;6.83;100.00;101064.38;5054839;28;20454;-69
2024/02/04 06:46:25;;;;;;;1.80;0.50;;;;;;;6.81;100.00;101061.91;5055962;28;20513;-69
2024/02/04 06:48:51;;;;;;;2.10;0.83;;;;;;;6.86;100.00;101068.41;5055778;28;20450;-68
2024/02/04 06:51:18;;;;;;;1.60;0.50;;;;;;;6.83;100.00;101069.75;5055731;28;20918;-68
2024/02/04 06:53:44;;;;;;;1.90;0.73;;;;;;;6.82;100.00;101068.94;5055758;28;20442;-68
2024/02/04 06:56:11;;;;;;;2.73;0.93;;;;;;;6.86;100.00;101071.88;5055687;28;20470;-68
2024/02/04 06:58:38;;;;;;;2.33;1.00;;;;;;;6.81;100.00;101063.81;5055574;28;20525;-68
2024/02/04 07:01:06;;;;;;;2.87;0.90;;;;;;;6.88;100.00;101068.97;5055686;28;20798;-69
2024/02/04 07:03:33;;;;;;;2.00;0.77;;;;;;;6.87;100.00;101046.59;5055496;28;20494;-69
2024/02/04 07:06:00;;;;;;;3.87;0.90;;;;;;;6.89;100.00;101060.59;5055438;28;20434;-69
2024/02/04 07:08:27;;;;;;;2.43;1.17;;;;;;;6.90;100.00;101051.44;5055513;28;20430;-69
2024/02/04 07:10:54;;;;;;;13.30;1.40;;;;;;;6.90;100.00;101053.34;5055053;28;20998;-69
2024/02/04 07:13:20;;;;;;;3.60;1.37;;;;;;;6.93;100.00;101047.44;5055323;28;20512;-69
2024/02/04 07:15:47;;;;;;;2.03;0.87;;;;;;;6.96;100.00;101044.22;5055346;28;20853;-69
2024/02/04 07:18:17;;;;;;;1.90;0.57;;;;;;;6.97;100.00;101038.56;5055248;28;20464;-68
2024/02/04 07:20:43;;;;;;;2.07;0.80;;;;;;;6.97;100.00;101027.78;5055250;28;20484;-68
2024/02/04 07:23:10;;;;;;;2.00;0.87;;;;;;;7.00;100.00;101032.63;5055114;28;20550;-68
2024/02/04 07:25:37;;;;;;;2.47;0.70;;;;;;;7.01;100.00;101030.75;5054865;28;20450;-68
2024/02/04 07:28:04;;;;;;;3.13;1.10;;;;;;;7.01;100.00;101033.44;5055015;28;20875;-70
2024/02/04 07:30:30;;;;;;;2.50;0.97;;;;;;;7.02;100.00;101043.94;5055286;28;20522;-72
2024/02/04 07:32:57;;;;;;;2.27;0.80;;;;;;;7.04;100.00;101046.41;5055191;28;21033;-72
2024/02/04 07:35:25;;;;;;;2.17;1.00;;;;;;;7.05;100.00;101040.72;5054665;28;20961;-68
2024/02/04 07:37:52;;;;;;;3.03;1.13;;;;;;;7.08;100.00;101024.03;5054928;28;20470;-69
2024/02/04 07:40:18;;;;;;;2.63;0.60;;;;;;;7.06;100.00;101025.38;5055027;28;20902;-69
2024/02/04 07:42:45;;;;;;;2.47;1.00;;;;;;;7.13;100.00;101017.84;5054768;28;20537;-69
2024/02/04 07:45:11;;;;;;;1.80;0.70;;;;;;;7.20;100.00;101007.59;5054775;28;20450;-69
2024/02/04 07:47:38;;;;;;;2.70;1.13;;;;;;;7.19;100.00;101002.50;5055161;28;20443;-69
2024/02/04 07:50:06;;;;;;;2.70;1.37;;;;;;;7.20;100.00;100994.13;5054318;28;20573;-70
2024/02/04 07:52:34;;;;;;;2.83;1.10;;;;;;;7.21;100.00;100984.16;5054300;28;20494;-69
2024/02/04 07:55:00;;;;;;;2.67;1.23;;;;;;;7.27;100.00;100986.63;5054647;28;20446;-69
2024/02/04 07:57:27;;;;;;;2.30;0.80;;;;;;;7.31;100.00;100985.00;5054513;28;20537;-69
2024/02/04 07:59:54;;;;;;;3.70;1.90;;;;;;;7.34;100.00;100986.34;5054541;28;20474;-69
2024/02/04 08:02:20;;;;;;;2.57;1.20;;;;;;;7.41;100.00;101002.25;5054199;28;21053;-69
2024/02/04 08:04:47;;;;;;;2.27;0.60;;;;;;;7.45;100.00;101000.63;5054414;28;20474;-69
2024/02/04 08:07:14;;;;;;;2.00;0.97;;;;;;;7.44;100.00;100989.03;5054034;28;20521;-70
2024/02/04 08:09:42;;;;;;;2.17;0.83;;;;;;;7.51;100.00;100984.19;5054233;28;20450;-69
2024/02/04 08:12:09;;;;;;;4.47;0.93;;;;;;;7.52;100.00;100976.91;5054406;28;20490;-69
2024/02/04 08:14:36;;;;;;;1.70;0.60;;;;;;;7.53;100.00;100986.63;5054867;28;20449;-69
2024/02/04 08:17:02;;;;;;;3.63;1.30;;;;;;;7.55;100.00;100987.13;5053841;28;20442;-69
2024/02/04 08:19:29;;;;;;;2.93;1.40;;;;;;;7.57;100.00;100993.91;5054204;28;20477;-69
2024/02/04 08:21:56;;;;;;;2.77;1.10;;;;;;;7.64;100.00;100992.78;5053736;28;20486;-69
2024/02/04 08:24:22;;;;;;;2.30;0.93;;;;;;;7.63;100.00;100989.28;5054467;28;20525;-69
2024/02/04 08:26:50;;;;;;;1.80;0.70;;;;;;;7.70;100.00;100975.53;5053991;28;20862;-69
2024/02/04 08:29:17;;;;;;;2.47;0.87;;;;;;;7.74;100.00;100968.50;5054439;28;20442;-69
2024/02/04 08:31:43;;;;;;;3.07;1.40;;;;;;;7.73;100.00;100975.78;5054356;28;20496;-69
2024/02/04 08:34:10;;;;;;;2.63;0.70;;;;;;;7.80;99.30;100973.63;5053596;28;20946;-69
2024/02/04 08:36:37;;;;;;;2.37;0.73;;;;;;;7.87;98.73;100967.13;5053741;28;20495;-69
2024/02/04 08:39:04;;;;;;;2.43;1.07;;;;;;;7.87;98.55;100961.75;5053508;28;20438;-68
2024/02/04 08:41:30;;;;;;;6.77;1.27;;;;;;;7.87;97.11;100954.47;5053737;28;20469;-67
2024/02/04 08:43:58;;;;;;;1.80;0.57;;;;;;;7.93;97.03;100949.88;5053739;28;20450;-68
2024/02/04 08:46:25;;;;;;;3.60;1.30;;;;;;;7.91;97.42;100952.84;5054212;28;20434;-67
2024/02/04 08:48:51;;;;;;;1.80;0.60;;;;;;;7.93;97.44;100955.28;5053406;28;20491;-67
2024/02/04 08:51:19;;;;;;;1.60;0.40;;;;;;;7.99;97.00;100963.06;5053722;28;20481;-70
2024/02/04 08:53:46;;;;;;;2.20;0.63;;;;;;;8.05;96.40;100961.16;5053589;28;20791;-70
2024/02/04 08:56:12;;;;;;;1.90;0.70;;;;;;;7.98;95.97;100960.66;5053474;28;20438;-70
2024/02/04 08:58:39;;;;;;;3.90;0.97;;;;;;;7.98;95.77;100960.66;5053486;28;20456;-70
2024/02/04 09:01:07;;;;;;;2.70;0.80;;;;;;;7.97;96.61;100956.31;5053190;28;20481;-70
2024/02/04 09:03:34;;;;;;;2.30;0.80;;;;;;;8.02;96.31;100962.53;5053568;28;20558;-70
2024/02/04 09:06:00;;;;;;;3.33;1.43;;;;;;;8.09;95.02;100956.81;5053135;28;20727;-68
2024/02/04 09:08:27;;;;;;;1.80;0.60;;;;;;;8.14;94.70;100961.41;5053426;28;20470;-67
2024/02/04 09:10:54;;;;;;;2.50;1.70;;;;;;;8.19;93.97;100945.19;5053298;28;20521;-67
2024/02/04 09:13:20;;;;;;;2.10;0.60;;;;;;;8.22;93.74;100956.25;5053067;28;20457;-65
2024/02/04 09:15:47;;;;;;;3.90;0.70;;;;;;;8.18;94.38;100949.78;5053295;28;20440;-67
2024/02/04 09:18:15;;;;;;;6.10;1.20;;;;;;;8.19;94.23;100940.63;5053261;28;20480;-67
2024/02/04 09:20:42;;;;;;;2.10;0.50;;;;;;;8.26;94.12;100951.91;5053520;28;20537;-67
2024/02/04 09:23:08;;;;;;;2.30;0.70;;;;;;;8.22;93.56;100947.34;5053421;28;20486;-67
2024/02/04 09:25:35;;;;;;;1.63;0.40;;;;;;;8.24;93.71;100953.28;5053262;28;20449;-67
2024/02/04 09:28:01;;;;;;;2.37;1.10;;;;;;;8.31;92.65;100946.47;5053286;28;20569;-68
2024/02/04 09:30:28;;;;;;;1.93;0.80;;;;;;;8.31;93.02;100953.78;5053535;28;20482;-67
2024/02/04 09:32:54;;;;;;;6.30;0.87;;;;;;;8.42;91.49;100946.50;5052883;28;20984;-67
2024/02/04 09:35:22;;;;;;;1.60;0.40;;;;;;;8.47;90.69;100951.84;5053230;28;20477;-68
2024/02/04 09:37:49;;;;;;;1.90;0.60;;;;;;;8.39;91.28;100957.81;5053888;28;20543;-67
2024/02/04 09:40:16;;;;;;;2.10;0.70;;;;;;;8.50;91.03;100959.38;5052826;28;20442;-67
2024/02/04 09:42:44;;;;;;;1.60;0.30;;;;;;;8.54;90.24;100949.63;5053263;28;20810;-67
2024/02/04 09:45:12;;;;;;;2.27;0.70;;;;;;;8.48;91.50;100954.28;5052814;28;20442;-67
2024/02/04 09:47:41;;;;;;;2.53;0.70;;;;;;;8.60;89.14;100948.53;5053336;28;20441;-67
2024/02/04 09:50:08;;;;;;;4.10;1.00;;;;;;;8.58;89.64;100937.19;5052815;28;20918;-67
2024/02/04 09:52:41;;;;;;;1.67;0.47;;;;;;;8.70;88.16;100945.78;5053246;28;20458;-67
2024/02/04 09:55:11;;;;;;;2.10;0.60;;;;;;;8.78;87.31;100947.09;5053389;28;20419;-67
2024/02/04 09:57:37;;;;;;;1.80;0.60;;;;;;;8.76;87.62;100928.44;5053020;28;20464;-67
2024/02/04 10:00:05;;;;;;;2.60;0.77;;;;;;;8.81;86.50;100938.44;5052689;28;20473;-67
2024/02/04 10:02:33;;;;;;;2.33;0.93;;;;;;;8.84;86.21;100924.34;5052542;28;20549;-67
2024/02/04 10:05:00;;;;;;;2.57;0.70;;;;;;;8.87;85.31;100937.31;5052871;28;20997;-67
2024/02/04 10:07:27;;;;;;;2.53;0.77;;;;;;;8.97;83.69;100939.13;5052571;28;20444;-67
2024/02/04 10:09:56;;;;;;;1.70;0.40;;;;;;;8.96;82.71;100946.41;5052614;28;20995;-67
2024/02/04 10:12:23;;;;;;;2.23;0.60;;;;;;;8.95;82.91;100927.81;5052891;28;20485;-67
2024/02/04 10:14:50;;;;;;;1.87;0.47;;;;;;;8.95;83.44;100925.09;5052857;28;20484;-67
2024/02/04 10:17:17;;;;;;;1.57;0.37;;;;;;;8.98;83.76;100929.91;5053252;28;20524;-68
2024/02/04 10:19:43;;;;;;;2.47;0.47;;;;;;;9.05;81.99;100912.31;5056481;28;20438;-67
2024/02/04 10:22:10;;;;;;;1.60;0.40;;;;;;;9.14;81.53;100920.63;5056334;28;20458;-67
2024/02/04 10:24:36;;;;;;;3.30;1.17;;;;;;;9.18;81.07;100918.97;5056076;28;20531;-67
2024/02/04 10:27:05;;;;;;;1.70;0.50;;;;;;;9.14;81.79;100917.91;5056361;28;20438;-67
2024/02/04 10:29:32;;;;;;;1.60;0.40;;;;;;;9.18;80.80;100913.56;5056267;28;20529;-67
2024/02/04 10:31:58;;;;;;;2.07;0.60;;;;;;;9.18;81.12;100900.03;5056057;28;20492;-67
2024/02/04 10:34:27;;;;;;;1.70;0.53;;;;;;;9.22;80.17;100898.38;5056157;28;20530;-67
2024/02/04 10:36:54;;;;;;;1.60;0.40;;;;;;;9.27;79.78;100900.25;5056164;28;20470;-68
2024/02/04 10:39:20;;;;;;;1.60;0.40;;;;;;;9.32;78.95;100911.81;5056135;28;20521;-70
2024/02/04 10:41:51;;;;;;;1.80;0.50;;;;;;;9.28;80.44;100897.25;5055970;28;20533;-68
2024/02/04 10:44:22;;;;;;;2.00;0.70;;;;;;;9.21;78.81;100890.53;5056025;28;20490;-67
2024/02/04 10:46:51;;;;;;;1.60;0.30;;;;;;;9.20;79.27;100895.16;5056054;28;20432;-66
2024/02/04 10:49:20;;;;;;;1.80;0.70;;;;;;;9.16;78.88;100893.31;5056002;28;20961;-66
2024/02/04 10:51:47;;;;;;;3.23;0.60;;;;;;;9.26;78.67;100899.44;5055730;28;20526;-67
2024/02/04 10:54:17;;;;;;;2.63;0.50;;;;;;;9.25;79.44;100884.31;5055899;28;20529;-67
2024/02/04 10:56:46;;;;;;;2.00;0.50;;;;;;;9.27;79.63;100890.22;5055617;28;20957;-67
2024/02/04 10:59:13;;;;;;;2.07;0.73;;;;;;;9.31;78.41;100885.88;5055773;28;20801;-66
2024/02/04 11:01:42;;;;;;;1.60;0.40;;;;;;;9.29;78.78;100889.94;5055758;28;20476;-67
2024/02/04 11:04:11;;;;;;;1.60;0.40;;;;;;;9.30;79.13;100880.75;5056066;28;20446;-67
2024/02/04 11:06:38;;;;;;;1.60;0.40;;;;;;;9.38;78.09;100880.13;5055750;28;20434;-67
2024/02/04 11:09:06;;;;;;;2.10;0.60;;;;;;;9.38;78.21;100880.13;5055861;28;20440;-67
2024/02/04 11:11:33;;;;;;;1.60;0.40;;;;;;;9.33;78.49;100872.84;5055308;28;20925;-67
2024/02/04 11:14:05;;;;;;;2.00;0.60;;;;;;;9.37;78.12;100889.31;5055449;28;20798;-67
2024/02/04 11:16:47;;;;;;;2.37;0.77;;;;;;;9.42;77.76;100888.47;5055829;28;20501;-67
2024/02/04 11:19:29;;;;;;;1.80;0.50;;;;;;;9.42;77.34;100893.88;5055341;28;20434;-67
2024/02/04 11:22:31;;;;;;;1.70;0.50;;;;;;;9.42;77.30;100874.94;5055014;28;20465;-66
2024/02/04 11:25:18;;;;;;;3.30;0.47;;;;;;;9.37;78.21;100867.69;5054882;28;20512;-67
2024/02/04 11:27:46;;;;;;;1.77;0.60;;;;;;;9.30;78.23;100861.84;5054697;28;20430;-67